Time;durP1;ratioP1;P1;durP2;ratioP2;P2;SDS_P1;SDS_P2;PMS_P1;PMS_P2;Temp;Humidity;BMP_temperature;BMP_pressure;BME280_temperature;BME280_humidity;BME280_pressure;Samples;Min_cycle;Max_cycle;Signal;HPM_P1;HPM_P2
2020/12/17 00:00:29;;;;;;;7.13;4.53;;;11.10;1.00;;;;;;5100345;28;20422;-67
2020/12/17 00:02:55;;;;;;;7.37;4.73;;;11.10;1.00;;;;;;5096927;28;20409;-66
2020/12/17 00:05:22;;;;;;;5.90;4.43;;;11.10;1.00;;;;;;5095050;28;20483;-66
2020/12/17 00:07:48;;;;;;;6.90;5.43;;;11.10;1.00;;;;;;5099690;28;20176;-66
2020/12/17 00:10:15;;;;;;;5.60;4.50;;;11.10;1.00;;;;;;5095250;28;20417;-66
2020/12/17 00:12:45;;;;;;;8.70;4.33;;;11.10;1.00;;;;;;5095898;28;20925;-67
2020/12/17 00:15:43;;;;;;;11.20;5.27;;;11.10;1.00;;;;;;5099691;28;20794;-66
2020/12/17 00:18:21;;;;;;;7.40;4.70;;;11.10;1.00;;;;;;5093506;28;20461;-67
2020/12/17 00:21:37;;;;;;;5.07;4.20;;;11.10;1.00;;;;;;5099658;28;20416;-67
2020/12/17 00:24:03;;;;;;;6.47;4.83;;;11.00;1.00;;;;;;5031426;28;20482;-67
2020/12/17 00:27:04;;;;;;;5.50;4.70;;;11.00;1.00;;;;;;5058025;28;20455;-66
2020/12/17 00:30:11;;;;;;;7.77;4.57;;;11.00;1.00;;;;;;5055358;28;20420;-65
2020/12/17 00:33:17;;;;;;;6.77;4.40;;;11.10;1.00;;;;;;4977870;28;20507;-67
2020/12/17 00:36:20;;;;;;;6.10;4.00;;;10.90;1.00;;;;;;4978375;28;20438;-67
2020/12/17 00:39:11;;;;;;;5.13;4.63;;;11.00;1.00;;;;;;4979210;28;20421;-67
2020/12/17 00:41:37;;;;;;;6.73;5.10;;;11.10;1.00;;;;;;4997203;28;20414;-66
2020/12/17 00:44:03;;;;;;;4.70;4.13;;;11.10;1.00;;;;;;5014338;28;20459;-67
2020/12/17 00:46:38;;;;;;;7.13;4.40;;;11.10;1.00;;;;;;5056008;28;20903;-66
2020/12/17 00:49:08;;;;;;;5.67;4.50;;;11.10;1.00;;;;;;5056060;28;20402;-67
2020/12/17 00:51:33;;;;;;;7.47;4.90;;;11.00;1.00;;;;;;5056600;28;20413;-67
2020/12/17 00:54:02;;;;;;;7.20;4.43;;;11.00;1.00;;;;;;5074036;28;20451;-68
2020/12/17 00:56:28;;;;;;;9.80;4.70;;;11.00;1.00;;;;;;5097433;28;20721;-65
2020/12/17 00:58:53;;;;;;;5.70;3.67;;;11.10;99.90;;;;;;5093245;28;20474;-67
2020/12/17 01:01:19;;;;;;;4.93;3.40;;;11.10;1.00;;;;;;5093568;28;20697;-67
2020/12/17 01:03:44;;;;;;;5.53;4.17;;;11.00;1.00;;;;;;5093459;28;20191;-67
2020/12/17 01:06:10;;;;;;;5.00;3.93;;;11.00;1.00;;;;;;5094009;28;20583;-66
2020/12/17 01:08:35;;;;;;;4.87;3.60;;;11.00;99.90;;;;;;5093511;28;20536;-66
2020/12/17 01:11:04;;;;;;;7.80;4.10;;;11.10;1.00;;;;;;5094326;28;20171;-67
2020/12/17 01:13:29;;;;;;;7.33;4.03;;;11.10;99.90;;;;;;5093908;28;20251;-67
2020/12/17 01:15:55;;;;;;;6.63;4.13;;;11.10;99.90;;;;;;5093768;28;20476;-66
2020/12/17 01:18:21;;;;;;;7.53;4.20;;;11.10;1.00;;;;;;5093421;28;20175;-67
2020/12/17 01:20:46;;;;;;;5.17;4.13;;;11.20;99.90;;;;;;5093055;28;20409;-67
2020/12/17 01:23:12;;;;;;;8.70;4.20;;;11.10;99.90;;;;;;5093240;28;20164;-67
2020/12/17 01:25:37;;;;;;;6.23;4.33;;;11.10;99.90;;;;;;5092763;28;20203;-67
2020/12/17 01:28:11;;;;;;;4.50;3.70;;;11.20;99.90;;;;;;5093040;28;20636;-67
2020/12/17 01:30:36;;;;;;;4.23;3.30;;;11.10;99.90;;;;;;5093051;28;20152;-67
2020/12/17 01:33:02;;;;;;;5.10;3.67;;;11.10;99.90;;;;;;5093209;28;20405;-67
2020/12/17 01:35:27;;;;;;;5.83;3.70;;;11.10;99.90;;;;;;5092928;28;20219;-66
2020/12/17 01:37:53;;;;;;;5.30;3.57;;;11.20;99.90;;;;;;5091639;28;20176;-65
2020/12/17 01:40:18;;;;;;;4.60;3.60;;;11.20;99.90;;;;;;5092971;28;20179;-66
2020/12/17 01:42:44;;;;;;;5.03;3.57;;;11.20;99.90;;;;;;5092823;28;20177;-67
2020/12/17 01:45:09;;;;;;;3.53;3.20;;;11.20;99.90;;;;;;5095328;28;20283;-66
2020/12/17 01:47:38;;;;;;;4.80;3.43;;;11.20;99.90;;;;;;5096823;28;20589;-66
2020/12/17 01:50:07;;;;;;;5.53;3.60;;;11.30;99.90;;;;;;5096816;28;20163;-66
2020/12/17 01:52:33;;;;;;;3.13;2.60;;;11.30;99.90;;;;;;5096935;28;20460;-66
2020/12/17 01:55:00;;;;;;;4.53;3.13;;;11.30;99.90;;;;;;5096539;28;20471;-67
2020/12/17 01:57:31;;;;;;;7.80;3.60;;;11.30;99.90;;;;;;5096675;28;20404;-67
2020/12/17 02:00:03;;;;;;;6.37;3.67;;;11.30;99.90;;;;;;5096708;28;20382;-67
2020/12/17 02:02:31;;;;;;;3.93;3.53;;;11.30;99.90;;;;;;5096872;28;20472;-67
2020/12/17 02:04:58;;;;;;;5.20;3.70;;;11.30;99.90;;;;;;5096338;28;20459;-67
2020/12/17 02:07:24;;;;;;;4.57;3.37;;;11.20;99.90;;;;;;5096514;28;20538;-67
2020/12/17 02:09:50;;;;;;;5.13;3.10;;;11.30;99.90;;;;;;5096467;28;20425;-67
2020/12/17 02:12:15;;;;;;;2.80;2.50;;;11.30;99.90;;;;;;5096438;28;20159;-66
2020/12/17 02:14:41;;;;;;;5.43;3.30;;;11.30;99.90;;;;;;5096588;28;20957;-67
2020/12/17 02:17:07;;;;;;;3.90;3.43;;;11.30;99.90;;;;;;5096320;28;20170;-66
2020/12/17 02:19:32;;;;;;;4.30;3.70;;;11.20;99.90;;;;;;5095023;28;20198;-66
2020/12/17 02:21:58;;;;;;;6.10;3.23;;;11.20;99.90;;;;;;5096156;28;20167;-67
2020/12/17 02:24:24;;;;;;;5.33;3.77;;;11.20;99.90;;;;;;5094735;28;20581;-67
2020/12/17 02:26:50;;;;;;;3.83;3.17;;;11.20;99.90;;;;;;5095785;28;20241;-67
2020/12/17 02:29:16;;;;;;;3.37;2.93;;;11.20;99.90;;;;;;5095939;28;20462;-67
2020/12/17 02:31:42;;;;;;;5.97;3.07;;;11.10;99.90;;;;;;5096192;28;20457;-67
2020/12/17 02:34:07;;;;;;;4.27;3.63;;;11.20;99.90;;;;;;5095921;28;20178;-67
2020/12/17 02:36:33;;;;;;;6.10;3.43;;;11.20;99.90;;;;;;5095855;28;20492;-67
2020/12/17 02:38:59;;;;;;;5.13;3.70;;;11.20;99.90;;;;;;5095839;28;20225;-67
2020/12/17 02:41:26;;;;;;;5.83;3.70;;;11.20;99.90;;;;;;5095797;28;20175;-67
2020/12/17 02:43:52;;;;;;;6.50;4.23;;;11.20;99.90;;;;;;5095675;28;20445;-67
2020/12/17 02:46:19;;;;;;;5.63;4.37;;;11.10;99.90;;;;;;5095618;28;20414;-67
2020/12/17 02:48:51;;;;;;;4.57;3.63;;;11.10;99.90;;;;;;5095876;28;20777;-67
2020/12/17 02:51:18;;;;;;;4.13;3.53;;;11.10;99.90;;;;;;5095625;28;20401;-67
2020/12/17 02:53:43;;;;;;;8.30;5.33;;;11.20;99.90;;;;;;5095827;28;20402;-67
2020/12/17 02:56:13;;;;;;;4.60;3.70;;;11.20;99.90;;;;;;5094902;28;20440;-67
2020/12/17 02:58:38;;;;;;;4.33;3.80;;;11.20;99.90;;;;;;5095422;28;20159;-67
2020/12/17 03:01:04;;;;;;;5.83;3.40;;;11.10;99.90;;;;;;5095400;28;20393;-67
2020/12/17 03:03:29;;;;;;;4.10;3.20;;;11.10;99.90;;;;;;5095168;28;20400;-66
2020/12/17 03:05:55;;;;;;;5.20;3.50;;;11.00;99.90;;;;;;5095285;28;20686;-67
2020/12/17 03:08:21;;;;;;;4.97;4.00;;;11.00;99.90;;;;;;5095340;28;20716;-67
2020/12/17 03:10:46;;;;;;;4.63;3.73;;;11.10;99.90;;;;;;5095516;28;20203;-66
2020/12/17 03:13:12;;;;;;;6.33;3.93;;;11.10;99.90;;;;;;5095130;28;20652;-66
2020/12/17 03:15:37;;;;;;;15.83;3.53;;;11.00;99.90;;;;;;5095120;28;20240;-67
2020/12/17 03:18:03;;;;;;;4.33;3.80;;;11.10;99.90;;;;;;5095153;28;20655;-67
2020/12/17 03:20:29;;;;;;;10.43;4.40;;;11.10;99.90;;;;;;5095051;28;20168;-67
2020/12/17 03:22:54;;;;;;;5.40;3.50;;;11.10;99.90;;;;;;5095255;28;20179;-66
2020/12/17 03:25:20;;;;;;;6.93;3.57;;;11.00;99.90;;;;;;5094769;28;20211;-66
2020/12/17 03:27:45;;;;;;;4.60;3.33;;;11.10;99.90;;;;;;5095230;28;20486;-67
2020/12/17 03:30:11;;;;;;;4.40;3.60;;;11.20;99.90;;;;;;5094915;28;20164;-67
2020/12/17 03:32:36;;;;;;;3.23;2.87;;;11.20;99.90;;;;;;5095345;28;20175;-67
2020/12/17 03:35:02;;;;;;;4.77;3.73;;;11.10;99.90;;;;;;5094719;28;20198;-67
2020/12/17 03:37:28;;;;;;;5.43;3.70;;;11.10;99.90;;;;;;5095012;28;20164;-67
2020/12/17 03:39:53;;;;;;;3.70;3.20;;;11.00;99.90;;;;;;5094653;28;20412;-67
2020/12/17 03:42:19;;;;;;;5.47;3.70;;;11.00;99.90;;;;;;5094590;28;20172;-67
2020/12/17 03:44:46;;;;;;;4.83;3.70;;;11.00;99.90;;;;;;5094888;28;20202;-70
2020/12/17 03:47:11;;;;;;;4.90;3.80;;;11.00;99.90;;;;;;5094885;28;20649;-66
2020/12/17 03:49:37;;;;;;;4.80;3.63;;;10.90;99.90;;;;;;5094468;28;20405;-67
2020/12/17 03:52:03;;;;;;;5.63;3.63;;;10.90;99.90;;;;;;5094448;28;20229;-67
2020/12/17 03:54:28;;;;;;;3.53;3.17;;;10.90;99.90;;;;;;5094610;28;20433;-67
2020/12/17 03:56:54;;;;;;;4.30;3.77;;;11.00;99.90;;;;;;5094461;28;20286;-66
2020/12/17 03:59:19;;;;;;;5.83;3.70;;;10.90;99.90;;;;;;5094215;28;20562;-67
2020/12/17 04:01:45;;;;;;;6.70;3.90;;;10.90;99.90;;;;;;5094455;28;20170;-67
2020/12/17 04:04:10;;;;;;;4.77;3.33;;;11.00;99.90;;;;;;5094064;28;20195;-67
2020/12/17 04:06:36;;;;;;;5.30;3.60;;;11.00;99.90;;;;;;5093984;28;20187;-67
2020/12/17 04:09:01;;;;;;;5.80;4.27;;;11.00;99.90;;;;;;5093189;28;20164;-67
2020/12/17 04:11:27;;;;;;;6.10;3.67;;;10.90;99.90;;;;;;5093928;28;20232;-67
2020/12/17 04:13:53;;;;;;;5.00;3.73;;;11.00;99.90;;;;;;5093978;28;20528;-67
2020/12/17 04:16:18;;;;;;;4.57;3.53;;;10.90;99.90;;;;;;5093838;28;20199;-67
2020/12/17 04:18:44;;;;;;;3.90;3.50;;;11.00;99.90;;;;;;5094453;28;20171;-67
2020/12/17 04:21:09;;;;;;;4.37;3.30;;;10.90;99.90;;;;;;5094430;28;20164;-67
2020/12/17 04:23:35;;;;;;;4.40;3.70;;;10.90;99.90;;;;;;5094458;28;20660;-67
2020/12/17 04:26:01;;;;;;;5.17;3.60;;;10.90;99.90;;;;;;5093858;28;20198;-67
2020/12/17 04:28:27;;;;;;;3.43;3.13;;;10.90;99.90;;;;;;5094058;28;20156;-67
2020/12/17 04:30:54;;;;;;;5.87;3.53;;;10.90;99.90;;;;;;5093770;28;20170;-67
2020/12/17 04:33:20;;;;;;;5.00;2.80;;;10.90;99.90;;;;;;5093678;28;20399;-67
2020/12/17 04:35:45;;;;;;;8.70;4.27;;;10.80;99.90;;;;;;5093584;28;20909;-67
2020/12/17 04:38:11;;;;;;;4.10;3.70;;;10.80;99.90;;;;;;5093627;28;20673;-67
2020/12/17 04:40:36;;;;;;;6.50;4.30;;;10.80;99.90;;;;;;5093568;28;20259;-67
2020/12/17 04:43:02;;;;;;;4.50;3.60;;;10.80;99.90;;;;;;5093677;28;20168;-67
2020/12/17 04:45:28;;;;;;;6.63;3.83;;;10.80;99.90;;;;;;5093382;28;20207;-67
2020/12/17 04:47:56;;;;;;;7.00;4.20;;;10.80;99.90;;;;;;5093492;28;20654;-67
2020/12/17 04:50:25;;;;;;;7.47;4.13;;;10.80;99.90;;;;;;5093664;28;20440;-66
2020/12/17 04:52:53;;;;;;;6.17;3.40;;;10.70;99.90;;;;;;5093321;28;20506;-67
2020/12/17 04:55:23;;;;;;;6.30;3.80;;;10.80;99.90;;;;;;5091996;28;20464;-67
2020/12/17 04:57:51;;;;;;;6.40;3.90;;;10.70;99.90;;;;;;5093238;28;20414;-67
2020/12/17 05:00:17;;;;;;;5.83;4.20;;;10.60;1.00;;;;;;5093626;28;20409;-67
2020/12/17 05:02:47;;;;;;;11.83;4.87;;;10.60;99.90;;;;;;5091999;28;20413;-67
2020/12/17 05:05:13;;;;;;;5.93;3.67;;;10.60;1.00;;;;;;5093348;28;20222;-67
2020/12/17 05:07:40;;;;;;;5.97;3.67;;;10.70;99.90;;;;;;5093488;28;20981;-67
2020/12/17 05:10:06;;;;;;;5.80;4.60;;;10.80;1.00;;;;;;5092245;28;20774;-66
2020/12/17 05:12:31;;;;;;;5.10;3.63;;;10.60;1.00;;;;;;5093151;28;20394;-66
2020/12/17 05:14:57;;;;;;;8.87;4.23;;;10.70;1.00;;;;;;5093110;28;20432;-67
2020/12/17 05:17:23;;;;;;;4.23;3.27;;;10.70;99.90;;;;;;5093339;28;20167;-66
2020/12/17 05:19:49;;;;;;;5.60;4.37;;;10.80;99.90;;;;;;5094878;28;20175;-66
2020/12/17 05:22:18;;;;;;;4.60;3.50;;;10.60;1.00;;;;;;5097050;28;20405;-67
2020/12/17 05:24:45;;;;;;;7.93;4.63;;;10.70;1.00;;;;;;5097021;28;20997;-66
2020/12/17 05:27:11;;;;;;;5.90;4.60;;;10.70;1.00;;;;;;5120213;22;20492;-67
2020/12/17 05:29:38;;;;;;;10.20;5.10;;;10.70;1.00;;;;;;5097126;28;20411;-68
2020/12/17 05:32:05;;;;;;;4.37;3.60;;;10.60;1.00;;;;;;5097348;28;20447;-68
2020/12/17 05:34:32;;;;;;;6.23;4.03;;;10.60;1.00;;;;;;5097309;28;20401;-68
2020/12/17 05:36:58;;;;;;;9.90;3.73;;;10.70;1.00;;;;;;5096858;28;20428;-68
2020/12/17 05:39:24;;;;;;;5.60;4.37;;;10.60;1.00;;;;;;5097239;28;20797;-68
2020/12/17 05:41:51;;;;;;;6.60;4.33;;;10.60;1.00;;;;;;5097121;28;20405;-68
2020/12/17 05:44:21;;;;;;;5.87;3.57;;;10.60;1.00;;;;;;5096977;28;20251;-68
2020/12/17 05:46:49;;;;;;;4.20;3.80;;;10.60;1.00;;;;;;5096673;28;20459;-68
2020/12/17 05:49:28;;;;;;;7.37;3.73;;;10.60;1.00;;;;;;5097011;28;20401;-68
2020/12/17 05:52:16;;;;;;;5.33;3.97;;;10.70;1.00;;;;;;5096771;28;20411;-67
2020/12/17 05:54:59;;;;;;;6.20;4.80;;;10.60;1.00;;;;;;5097111;28;20733;-67
2020/12/17 05:57:24;;;;;;;6.23;4.13;;;10.70;1.00;;;;;;5096823;28;20429;-68
2020/12/17 05:59:58;;;;;;;6.70;4.43;;;10.70;1.00;;;;;;5096507;28;20401;-68
2020/12/17 06:02:26;;;;;;;7.47;4.17;;;10.60;1.00;;;;;;5096902;28;20171;-67
2020/12/17 06:05:05;;;;;;;4.43;3.60;;;10.70;1.00;;;;;;5096876;28;20960;-68
2020/12/17 06:07:47;;;;;;;8.80;4.07;;;10.60;1.00;;;;;;5096244;28;20424;-68
2020/12/17 06:10:23;;;;;;;5.00;3.67;;;10.60;1.00;;;;;;5096258;28;20858;-67
2020/12/17 06:12:52;;;;;;;10.00;4.23;;;10.80;1.00;;;;;;5096653;28;20386;-68
2020/12/17 06:15:23;;;;;;;9.13;4.43;;;10.90;99.90;;;;;;5096204;28;20380;-68
2020/12/17 06:17:51;;;;;;;6.90;3.37;;;10.90;99.90;;;;;;5096495;28;20746;-68
2020/12/17 06:20:17;;;;;;;7.00;3.53;;;10.80;1.00;;;;;;5095125;28;20520;-68
2020/12/17 06:23:00;;;;;;;4.40;3.60;;;10.80;1.00;;;;;;5096131;28;20488;-68
2020/12/17 06:25:28;;;;;;;6.80;3.70;;;10.80;1.00;;;;;;5095797;28;20481;-68
2020/12/17 06:27:55;;;;;;;4.50;3.30;;;10.80;99.90;;;;;;5096081;28;20752;-67
2020/12/17 06:30:26;;;;;;;5.60;3.03;;;10.70;99.90;;;;;;5095468;28;20402;-67
2020/12/17 06:33:01;;;;;;;4.83;3.93;;;10.80;99.90;;;;;;5095461;28;20402;-68
2020/12/17 06:35:39;;;;;;;6.10;3.70;;;10.80;99.90;;;;;;5095252;28;20392;-68
2020/12/17 06:38:11;;;;;;;7.70;3.30;;;10.90;99.90;;;;;;5096756;28;20746;-66
2020/12/17 06:40:37;;;;;;;6.00;3.90;;;10.90;99.90;;;;;;5096121;28;20410;-68
2020/12/17 06:43:03;;;;;;;5.97;3.90;;;10.90;99.90;;;;;;5095814;28;20380;-68
2020/12/17 06:45:33;;;;;;;4.30;4.00;;;10.80;99.90;;;;;;5093907;28;20514;-68
2020/12/17 06:48:19;;;;;;;4.53;3.50;;;10.80;99.90;;;;;;5095527;28;20451;-67
2020/12/17 06:50:45;;;;;;;4.97;3.70;;;10.90;99.90;;;;;;5095372;28;21000;-67
2020/12/17 06:53:12;;;;;;;6.20;4.03;;;10.80;99.90;;;;;;5095497;28;20488;-68
2020/12/17 06:55:49;;;;;;;6.53;3.70;;;10.90;1.00;;;;;;5095225;28;20270;-67
2020/12/17 06:58:25;;;;;;;6.00;3.33;;;10.80;1.00;;;;;;5095178;28;20909;-67
2020/12/17 07:00:52;;;;;;;5.20;3.00;;;10.80;1.00;;;;;;5095493;28;20379;-67
2020/12/17 07:03:40;;;;;;;6.57;3.50;;;10.70;27.00;;;;;;5095034;28;20417;-66
2020/12/17 07:06:12;;;;;;;4.90;3.63;;;10.70;99.90;;;;;;5095370;28;20756;-67
2020/12/17 07:08:37;;;;;;;7.13;3.63;;;10.60;99.90;;;;;;5095247;28;20433;-68
2020/12/17 07:11:03;;;;;;;6.23;4.20;;;10.60;1.00;;;;;;5095065;28;20486;-68
2020/12/17 07:13:39;;;;;;;7.03;4.40;;;10.50;1.00;;;;;;5095431;28;20179;-67
2020/12/17 07:16:06;;;;;;;5.27;4.47;;;10.40;99.90;;;;;;5094749;28;20258;-67
2020/12/17 07:18:32;;;;;;;7.07;4.90;;;10.50;99.90;;;;;;5094729;28;20414;-66
2020/12/17 07:21:05;;;;;;;5.27;4.00;;;10.60;1.00;;;;;;5095033;28;20391;-68
2020/12/17 07:23:35;;;;;;;6.97;4.20;;;10.50;1.00;;;;;;5094798;28;20741;-67
2020/12/17 07:26:19;;;;;;;6.30;4.43;;;10.30;99.90;;;;;;5094605;28;20965;-68
2020/12/17 07:28:54;;;;;;;7.30;4.70;;;10.30;99.90;;;;;;5094723;28;20436;-68
2020/12/17 07:31:25;;;;;;;5.60;4.50;;;10.20;1.00;;;;;;5094378;28;20847;-68
2020/12/17 07:33:52;;;;;;;5.80;3.83;;;10.30;7.70;;;;;;5095015;28;20808;-67
2020/12/17 07:36:17;;;;;;;9.43;4.73;;;10.30;99.90;;;;;;5094455;28;20755;-67
2020/12/17 07:38:44;;;;;;;6.50;4.00;;;10.30;1.00;;;;;;5094473;28;20420;-68
2020/12/17 07:41:26;;;;;;;9.93;5.50;;;10.20;82.50;;;;;;5094462;28;20509;-67
2020/12/17 07:43:52;;;;;;;8.10;4.97;;;10.30;99.90;;;;;;5094093;28;20364;-68
2020/12/17 07:46:47;;;;;;;6.13;4.20;;;10.30;17.80;;;;;;5094363;28;20425;-68
2020/12/17 07:49:38;;;;;;;8.63;4.77;;;10.30;99.90;;;;;;5084684;28;20187;-67
2020/12/17 07:52:04;;;;;;;10.27;4.80;;;10.00;99.90;;;;;;5094570;28;20397;-68
2020/12/17 07:54:29;;;;;;;8.77;5.67;;;10.20;99.90;;;;;;5094007;28;20910;-67
2020/12/17 07:57:00;;;;;;;7.00;4.47;;;10.20;99.90;;;;;;5094252;28;20291;-68
2020/12/17 07:59:25;;;;;;;7.57;4.80;;;10.10;1.00;;;;;;5094046;28;20638;-67
2020/12/17 08:01:59;;;;;;;8.50;6.70;;;10.30;1.00;;;;;;5093763;28;20457;-68
2020/12/17 08:04:24;;;;;;;7.87;4.80;;;10.40;99.90;;;;;;5093774;28;20419;-68
2020/12/17 08:06:50;;;;;;;15.50;5.43;;;10.50;99.90;;;;;;5093686;28;20425;-68
2020/12/17 08:09:17;;;;;;;6.60;5.60;;;10.50;99.90;;;;;;5093790;28;20397;-68
2020/12/17 08:11:54;;;;;;;7.83;5.17;;;10.30;98.00;;;;;;5093951;28;20175;-68
2020/12/17 08:14:22;;;;;;;6.70;5.20;;;10.40;99.90;;;;;;5093508;28;20389;-68
2020/12/17 08:16:48;;;;;;;5.90;4.87;;;10.30;99.90;;;;;;5093413;28;20417;-67
2020/12/17 08:19:14;;;;;;;5.60;4.40;;;10.20;99.90;;;;;;5093364;28;20409;-67
2020/12/17 08:21:41;;;;;;;5.57;4.63;;;10.30;99.90;;;;;;5093601;28;20416;-67
2020/12/17 08:24:10;;;;;;;8.13;4.70;;;10.30;99.90;;;;;;5093609;28;20286;-68
2020/12/17 08:26:36;;;;;;;9.37;6.97;;;10.40;99.90;;;;;;5093291;28;20477;-68
2020/12/17 08:29:02;;;;;;;5.90;4.83;;;10.40;99.90;;;;;;5093896;28;20419;-68
2020/12/17 08:31:29;;;;;;;9.40;4.10;;;10.40;30.00;;;;;;5093342;28;20209;-67
2020/12/17 08:33:59;;;;;;;10.90;5.70;;;10.30;99.90;;;;;;5094715;28;20475;-68
2020/12/17 08:36:30;;;;;;;6.80;4.33;;;10.40;99.90;;;;;;5094468;28;20774;-67
2020/12/17 08:38:56;;;;;;;7.70;4.07;;;10.30;99.90;;;;;;5094381;28;20378;-67
2020/12/17 08:41:27;;;;;;;4.87;4.17;;;10.20;99.90;;;;;;5093748;28;20410;-67
2020/12/17 08:43:56;;;;;;;11.10;5.20;;;10.40;99.90;;;;;;5093691;28;20393;-68
2020/12/17 08:46:26;;;;;;;7.90;4.83;;;10.50;55.40;;;;;;5093409;28;20514;-68
2020/12/17 08:48:53;;;;;;;11.77;4.03;;;10.40;1.00;;;;;;5093344;28;20386;-68
2020/12/17 08:51:21;;;;;;;7.60;4.33;;;10.50;1.00;;;;;;5092837;28;20401;-68
2020/12/17 08:53:46;;;;;;;7.83;4.30;;;10.50;1.00;;;;;;5092540;28;20368;-67
2020/12/17 08:56:20;;;;;;;7.73;5.00;;;10.40;99.90;;;;;;5092714;28;20424;-68
2020/12/17 08:58:54;;;;;;;4.57;3.50;;;10.50;1.00;;;;;;5093050;28;20247;-68
2020/12/17 09:01:31;;;;;;;12.50;3.57;;;10.40;99.90;;;;;;5093191;28;20416;-68
2020/12/17 09:03:58;;;;;;;6.07;4.03;;;10.40;99.90;;;;;;5092637;28;20397;-67
2020/12/17 09:06:26;;;;;;;7.80;3.80;;;10.30;1.00;;;;;;5093015;28;20807;-67
2020/12/17 09:08:52;;;;;;;5.53;3.60;;;10.40;99.90;;;;;;5092275;28;20418;-67
2020/12/17 09:11:36;;;;;;;5.53;3.03;;;10.30;1.00;;;;;;5091185;28;20530;-68
2020/12/17 09:14:04;;;;;;;8.83;4.40;;;10.40;1.00;;;;;;5092918;28;20414;-67
2020/12/17 09:16:32;;;;;;;6.00;2.67;;;10.40;99.90;;;;;;5092361;28;20928;-67
2020/12/17 09:18:59;;;;;;;9.40;2.87;;;10.50;1.00;;;;;;5092784;28;20487;-67
2020/12/17 09:21:25;;;;;;;5.77;3.60;;;10.50;11.00;;;;;;5093291;28;20477;-68
2020/12/17 09:23:59;;;;;;;8.17;5.20;;;10.40;1.00;;;;;;5092788;28;20471;-66
2020/12/17 09:26:25;;;;;;;9.13;4.60;;;10.40;1.00;;;;;;5092406;28;20487;-67
2020/12/17 09:29:12;;;;;;;10.60;4.70;;;10.50;99.90;;;;;;5092486;28;20946;-68
2020/12/17 09:31:38;;;;;;;10.30;3.17;;;10.50;1.00;;;;;;5092655;28;20426;-68
2020/12/17 09:34:05;;;;;;;4.80;3.47;;;10.50;99.90;;;;;;5092696;28;20499;-68
2020/12/17 09:36:31;;;;;;;5.63;3.37;;;10.50;99.90;;;;;;5091575;28;20584;-69
2020/12/17 09:39:03;;;;;;;4.20;3.40;;;10.50;99.90;;;;;;5092772;28;20490;-68
2020/12/17 09:41:30;;;;;;;5.97;3.60;;;10.50;99.90;;;;;;5092480;28;20216;-67
2020/12/17 09:43:56;;;;;;;5.77;4.00;;;10.50;1.00;;;;;;5092714;28;20405;-68
2020/12/17 09:46:22;;;;;;;7.27;3.17;;;10.50;99.90;;;;;;5092678;28;20422;-68
2020/12/17 09:48:48;;;;;;;6.70;3.70;;;10.60;1.00;;;;;;5092658;28;20171;-67
2020/12/17 09:51:13;;;;;;;3.97;2.47;;;10.60;99.90;;;;;;5092414;28;20886;-67
2020/12/17 09:53:42;;;;;;;4.67;3.70;;;10.60;1.00;;;;;;5092561;28;20167;-66
2020/12/17 09:56:09;;;;;;;6.60;4.17;;;10.60;1.00;;;;;;5092612;28;20260;-67
2020/12/17 09:58:36;;;;;;;4.10;3.33;;;10.70;99.90;;;;;;5092634;28;20412;-68
2020/12/17 10:01:01;;;;;;;4.63;2.83;;;10.80;59.70;;;;;;5092659;28;20492;-67
2020/12/17 10:03:27;;;;;;;8.43;3.70;;;11.00;1.00;;;;;;5092315;28;20433;-67
2020/12/17 10:05:52;;;;;;;4.90;2.90;;;11.00;54.60;;;;;;5092787;28;20513;-68
2020/12/17 10:08:18;;;;;;;6.53;3.27;;;11.30;99.90;;;;;;5096095;28;20163;-68
2020/12/17 10:10:43;;;;;;;5.70;3.00;;;11.70;99.90;;;;;;5096079;28;20159;-68
2020/12/17 10:13:09;;;;;;;7.50;2.23;;;11.80;1.00;;;;;;5096033;28;20160;-67
2020/12/17 10:15:35;;;;;;;5.07;2.67;;;11.90;1.00;;;;;;5096096;28;20201;-67
2020/12/17 10:18:01;;;;;;;4.40;3.33;;;11.90;1.00;;;;;;5095926;28;20402;-67
2020/12/17 10:20:27;;;;;;;5.43;2.53;;;11.80;1.00;;;;;;5096206;28;20175;-68
2020/12/17 10:22:54;;;;;;;4.40;2.17;;;12.10;1.00;;;;;;5095750;28;20286;-68
2020/12/17 10:25:23;;;;;;;4.77;2.33;;;12.00;99.90;;;;;;5095801;28;20456;-68
2020/12/17 10:27:49;;;;;;;3.70;1.77;;;11.90;99.90;;;;;;5095852;28;20417;-67
2020/12/17 10:30:15;;;;;;;3.07;1.87;;;11.80;99.90;;;;;;5096716;28;20380;-67
2020/12/17 10:32:41;;;;;;;5.17;1.90;;;11.80;99.90;;;;;;5095895;28;20408;-68
2020/12/17 10:35:08;;;;;;;2.17;1.60;;;11.70;99.90;;;;;;5095799;28;20510;-68
2020/12/17 10:37:34;;;;;;;3.03;1.33;;;11.30;99.90;;;;;;5095541;28;20422;-68
2020/12/17 10:40:00;;;;;;;7.17;1.67;;;11.30;99.90;;;;;;5095284;28;20384;-68
2020/12/17 10:42:25;;;;;;;1.57;1.13;;;11.20;99.90;;;;;;5095673;28;20168;-68
2020/12/17 10:44:51;;;;;;;1.57;1.07;;;11.40;99.90;;;;;;5095426;28;20593;-67
2020/12/17 10:47:18;;;;;;;2.50;1.23;;;11.30;99.90;;;;;;5095627;28;20278;-68
2020/12/17 10:49:44;;;;;;;5.57;1.27;;;11.50;99.90;;;;;;5095710;28;20168;-68
2020/12/17 10:52:10;;;;;;;1.10;0.83;;;11.60;99.90;;;;;;5095193;28;20406;-67
2020/12/17 10:54:36;;;;;;;2.00;1.00;;;11.40;99.90;;;;;;5094984;28;20528;-67
2020/12/17 10:57:02;;;;;;;1.80;0.97;;;11.70;99.90;;;;;;5095778;28;20190;-66
2020/12/17 10:59:28;;;;;;;3.37;0.83;;;11.90;99.90;;;;;;5095805;28;20406;-67
2020/12/17 11:01:57;;;;;;;1.30;1.13;;;12.20;98.50;;;;;;5095695;28;20924;-66
2020/12/17 11:04:24;;;;;;;3.90;1.50;;;12.50;91.40;;;;;;5093452;28;20627;-67
2020/12/17 11:06:49;;;;;;;3.40;1.23;;;12.70;58.10;;;;;;5094790;28;20446;-67
2020/12/17 11:09:15;;;;;;;1.53;1.23;;;12.90;38.60;;;;;;5094569;28;20758;-66
2020/12/17 11:11:40;;;;;;;3.07;1.13;;;12.80;23.80;;;;;;5094880;28;20179;-67
2020/12/17 11:14:06;;;;;;;1.67;0.80;;;12.80;35.90;;;;;;5094716;28;20179;-67
2020/12/17 11:16:31;;;;;;;1.83;0.90;;;12.30;49.60;;;;;;5094742;28;20207;-67
2020/12/17 11:18:59;;;;;;;2.40;1.00;;;12.10;99.90;;;;;;5095132;28;20333;-67
2020/12/17 11:21:25;;;;;;;4.70;1.03;;;12.20;99.90;;;;;;5096071;28;20167;-66
2020/12/17 11:23:51;;;;;;;1.40;0.97;;;12.30;36.10;;;;;;5096229;28;20387;-68
2020/12/17 11:26:16;;;;;;;3.87;0.77;;;12.40;39.10;;;;;;5118955;22;20612;-65
2020/12/17 11:28:45;;;;;;;1.53;1.00;;;12.10;33.20;;;;;;5100620;28;20213;-67
2020/12/17 11:31:11;;;;;;;1.53;0.77;;;12.00;42.00;;;;;;5095979;28;20616;-66
2020/12/17 11:33:36;;;;;;;2.63;1.17;;;12.20;36.80;;;;;;5093468;28;20455;-65
2020/12/17 11:36:04;;;;;;;1.77;1.20;;;12.20;39.00;;;;;;5095027;28;20175;-66
2020/12/17 11:38:30;;;;;;;2.10;0.73;;;12.20;55.70;;;;;;5094922;28;20171;-66
2020/12/17 11:40:55;;;;;;;4.60;1.33;;;12.10;47.90;;;;;;5094648;28;20762;-67
2020/12/17 11:43:21;;;;;;;4.50;1.00;;;12.10;45.70;;;;;;5093359;28;20555;-66
2020/12/17 11:45:46;;;;;;;3.73;1.00;;;12.10;44.20;;;;;;5094705;28;20234;-66
2020/12/17 11:48:12;;;;;;;2.30;1.00;;;12.20;39.10;;;;;;5096071;28;20282;-67
2020/12/17 11:50:38;;;;;;;2.00;1.17;;;11.80;54.00;;;;;;5094453;28;20167;-67
2020/12/17 11:53:04;;;;;;;2.87;1.17;;;11.90;54.20;;;;;;5094656;28;20191;-68
2020/12/17 11:55:29;;;;;;;2.50;1.20;;;12.20;51.00;;;;;;5094425;28;20448;-68
2020/12/17 11:57:55;;;;;;;3.23;0.87;;;12.50;4.50;;;;;;5094372;28;20270;-68
2020/12/17 12:00:20;;;;;;;2.70;1.40;;;12.40;1.00;;;;;;5094658;28;20171;-68
2020/12/17 12:02:46;;;;;;;4.77;1.33;;;12.20;8.40;;;;;;5094319;28;20206;-68
2020/12/17 12:05:12;;;;;;;3.60;1.37;;;12.20;18.00;;;;;;5094109;28;20252;-68
2020/12/17 12:07:37;;;;;;;16.50;1.90;;;12.20;1.00;;;;;;5094589;28;20183;-67
2020/12/17 12:10:04;;;;;;;10.80;1.57;;;12.00;29.60;;;;;;5094247;28;20174;-67
2020/12/17 12:12:30;;;;;;;12.80;2.07;;;12.40;23.50;;;;;;5094386;28;20624;-68
2020/12/17 12:14:56;;;;;;;9.90;1.83;;;12.60;6.40;;;;;;5094296;28;20409;-68
2020/12/17 12:17:22;;;;;;;3.07;1.10;;;12.30;27.10;;;;;;5092874;28;20972;-68
2020/12/17 12:19:47;;;;;;;5.53;1.30;;;12.30;1.00;;;;;;5094320;28;20490;-67
2020/12/17 12:22:13;;;;;;;4.13;1.20;;;12.30;1.00;;;;;;5094477;28;20212;-68
2020/12/17 12:24:38;;;;;;;4.50;1.30;;;12.60;1.00;;;;;;5094359;28;20202;-68
2020/12/17 12:27:04;;;;;;;6.60;1.10;;;12.70;1.00;;;;;;5094571;28;20249;-66
2020/12/17 12:29:30;;;;;;;21.47;2.60;;;12.50;1.00;;;;;;5093614;28;20182;-68
2020/12/17 12:31:55;;;;;;;3.13;1.17;;;12.60;1.00;;;;;;5093254;28;20410;-68
2020/12/17 12:34:21;;;;;;;8.13;2.20;;;12.70;1.00;;;;;;5093172;28;20311;-68
2020/12/17 12:36:52;;;;;;;8.67;1.70;;;12.50;1.00;;;;;;5093945;28;20191;-69
2020/12/17 12:39:18;;;;;;;5.47;1.67;;;12.60;1.00;;;;;;5094368;28;20837;-67
2020/12/17 12:41:45;;;;;;;6.33;1.50;;;12.50;1.00;;;;;;5094549;28;20409;-68
2020/12/17 12:44:11;;;;;;;1.20;0.90;;;12.50;1.00;;;;;;5094257;28;20445;-68
2020/12/17 12:46:37;;;;;;;9.97;1.50;;;12.30;1.00;;;;;;5093943;28;20422;-67
2020/12/17 12:49:03;;;;;;;15.13;2.27;;;12.50;1.00;;;;;;5093694;28;20476;-66
2020/12/17 12:51:28;;;;;;;7.60;1.60;;;12.70;1.00;;;;;;5093694;28;20163;-67
2020/12/17 12:53:54;;;;;;;3.20;1.73;;;12.80;1.00;;;;;;5093512;28;20651;-68
2020/12/17 12:56:23;;;;;;;5.47;1.50;;;12.80;1.00;;;;;;5093300;28;20226;-68